Brighstone, United Kingdom
Current Conditions -  °F | °C
As of 6:50 AM on Tuesday 21 Oct 2014 (Local Time) from EGHI Reporting Station
Broken Clouds Broken Clouds  
Wind Chill: 57°   Ceiling: 3800
Heat Index: 57°   Visibility: 6mi
Dew Point: 54°   Wind: 16mph
Humidity: 88%   Direction: 240°WSW
Pressure: 29.65"   Gusts: NA
Location:  50.64°N, 1.39°W
Report Text: EGHI 210550Z 24014KT 210V270 9999 FEW015 SCT024 BKN038 14/12 Q1004
Loading
Personal Weather Stations






























Interactive Weather Map
Tropical Storm Tracking
New forecast layout! Learn more

10-Day Weather Forecast

Advertisements
Track Severe Weather on mobile